createdAt,value
2019-03-28T00:00:41.421Z,10.15
2019-03-28T00:01:41.391Z,10.04
2019-03-28T00:02:41.737Z,10.02
2019-03-28T00:03:41.342Z,10.02
2019-03-28T00:04:41.360Z,10.02
2019-03-28T00:05:41.293Z,9.98
2019-03-28T00:06:41.266Z,10.07
2019-03-28T00:07:41.240Z,10.07
2019-03-28T00:08:41.219Z,10.04
2019-03-28T00:09:41.198Z,10.07
2019-03-28T00:10:41.171Z,10.04
2019-03-28T00:11:41.152Z,10.02
2019-03-28T00:12:41.188Z,10.04
2019-03-28T00:13:41.202Z,10.1
2019-03-28T00:14:41.075Z,10.02
2019-03-28T00:15:41.050Z,10.15
2019-03-28T00:16:41.026Z,10.09
2019-03-28T00:17:41.589Z,10.09
2019-03-28T00:18:40.973Z,10.09
2019-03-28T00:19:40.953Z,10.1
2019-03-28T00:20:40.924Z,10.12
2019-03-28T00:21:40.897Z,10.16
2019-03-28T00:22:40.882Z,10.2
2019-03-28T00:23:40.848Z,10.13
2019-03-28T00:24:40.823Z,10.13
2019-03-28T00:25:40.812Z,10.05
2019-03-28T00:26:40.775Z,10.2
2019-03-28T00:27:40.750Z,10.13
2019-03-28T00:28:41.609Z,10.25
2019-03-28T00:29:40.701Z,10.12
2019-03-28T00:30:40.679Z,10.17
2019-03-28T00:31:40.652Z,10.13
2019-03-28T00:32:40.643Z,10.23
2019-03-28T00:33:40.611Z,10.16
2019-03-28T00:34:40.583Z,10.12
2019-03-28T00:35:40.554Z,10.23
2019-03-28T00:36:40.528Z,10.25
2019-03-28T00:37:40.514Z,10.09
2019-03-28T00:38:40.493Z,10.17
2019-03-28T00:39:40.463Z,10.19
2019-03-28T00:40:40.432Z,10.16
2019-03-28T00:41:40.412Z,10.2
2019-03-28T00:42:40.386Z,10.12
2019-03-28T00:43:40.433Z,10.2
2019-03-28T00:44:40.333Z,10.13
2019-03-28T00:45:40.309Z,10.1
2019-03-28T00:46:40.283Z,10.2
2019-03-28T00:47:40.921Z,10.07
2019-03-28T00:48:40.239Z,10.05
2019-03-28T00:49:40.212Z,10.09
2019-03-28T00:50:40.184Z,10.12
2019-03-28T00:51:42.977Z,10.1
2019-03-28T00:52:40.151Z,10.09
2019-03-28T00:53:40.111Z,10.12
2019-03-28T00:54:39.854Z,10.1
2019-03-28T00:55:40.062Z,10.13
2019-03-28T00:56:51.338Z,10.1
2019-03-28T00:57:40.016Z,10.05
2019-03-28T00:58:39.996Z,10.16
2019-03-28T00:59:39.966Z,10.15
2019-03-28T01:00:40.207Z,10.02
2019-03-28T01:01:39.930Z,10.01
2019-03-28T01:02:39.899Z,9.98
2019-03-28T01:03:39.947Z,10.04
2019-03-28T01:04:39.606Z,10.01
2019-03-28T01:05:39.825Z,10.02
2019-03-28T01:06:39.802Z,9.98
2019-03-28T01:07:39.777Z,10.02
2019-03-28T01:08:40.279Z,10.01
2019-03-28T01:09:39.818Z,10.05
2019-03-28T01:10:39.693Z,10.04
2019-03-28T01:11:39.672Z,10.01
2019-03-28T01:12:39.651Z,10.04
2019-03-28T01:13:39.622Z,10.07
2019-03-28T01:14:39.604Z,10.07
2019-03-28T01:15:39.568Z,10.04
2019-03-28T01:16:39.622Z,9.98
2019-03-28T01:17:39.538Z,10.01
2019-03-28T01:18:39.500Z,10.04
2019-03-28T01:19:40.034Z,9.94
2019-03-28T01:20:39.458Z,10.07
2019-03-28T01:21:39.437Z,10.01
2019-03-28T01:22:39.408Z,9.98
2019-03-28T01:23:39.391Z,10.01
2019-03-28T01:24:39.359Z,10.04
2019-03-28T01:25:39.327Z,10.02
2019-03-28T01:26:39.306Z,10.04
2019-03-28T01:27:39.274Z,9.99
2019-03-28T01:28:39.265Z,10.05
2019-03-28T01:29:39.230Z,10.02
2019-03-28T01:30:39.208Z,10.04
2019-03-28T01:31:39.178Z,10.02
2019-03-28T01:32:39.155Z,10.02
2019-03-28T01:33:39.134Z,10.02
2019-03-28T01:34:39.104Z,9.97
2019-03-28T01:35:39.084Z,10.07
2019-03-28T01:36:39.055Z,10.02
2019-03-28T01:37:39.030Z,9.99
2019-03-28T01:38:39.002Z,10.02
2019-03-28T01:39:39.496Z,10.02
2019-03-28T01:40:38.969Z,9.99
2019-03-28T01:41:38.939Z,9.92
2019-03-28T01:42:38.905Z,9.95
2019-03-28T01:43:38.887Z,9.91
2019-03-28T01:44:38.860Z,9.97
2019-03-28T01:45:38.836Z,9.94
2019-03-28T01:46:38.807Z,10.02
2019-03-28T01:47:38.788Z,9.91
2019-03-28T01:48:38.760Z,9.99
2019-03-28T01:49:38.746Z,10.01
2019-03-28T01:50:38.713Z,10.09
2019-03-28T01:51:38.688Z,10.01
2019-03-28T01:52:38.668Z,9.97
2019-03-28T01:53:38.641Z,10.12
2019-03-28T01:54:38.610Z,10.01
2019-03-28T01:55:38.584Z,9.91
2019-03-28T01:56:38.763Z,9.89
2019-03-28T01:57:39.395Z,9.92
2019-03-28T01:58:38.511Z,9.92
2019-03-28T01:59:38.486Z,9.94
2019-03-28T02:00:38.487Z,9.95
2019-03-28T02:01:38.436Z,9.97
2019-03-28T02:02:38.430Z,9.91
2019-03-28T02:03:38.436Z,9.94
2019-03-28T02:04:38.368Z,9.91
2019-03-28T02:05:38.345Z,9.98
2019-03-28T02:06:38.767Z,9.99
2019-03-28T02:07:38.292Z,9.95
2019-03-28T02:08:38.263Z,9.95
2019-03-28T02:09:38.240Z,9.98
2019-03-28T02:10:38.215Z,9.97
2019-03-28T02:11:38.202Z,9.94
2019-03-28T02:12:38.166Z,9.91
2019-03-28T02:13:38.138Z,9.89
2019-03-28T02:14:38.353Z,9.89
2019-03-28T02:15:38.100Z,9.87
2019-03-28T02:16:37.835Z,9.95
2019-03-28T02:17:38.039Z,9.87
2019-03-28T02:18:38.013Z,9.95
2019-03-28T02:19:37.993Z,9.86
2019-03-28T02:20:38.605Z,9.86
2019-03-28T02:21:37.944Z,9.86
2019-03-28T02:22:37.918Z,9.94
2019-03-28T02:23:38.642Z,9.87
2019-03-28T02:24:37.868Z,9.89
2019-03-28T02:25:37.860Z,9.87
2019-03-28T02:26:37.826Z,9.86
2019-03-28T02:27:37.794Z,9.91
2019-03-28T02:28:37.775Z,9.91
2019-03-28T02:29:38.019Z,9.8
2019-03-28T02:30:37.721Z,9.91
2019-03-28T02:31:37.699Z,9.86
2019-03-28T02:32:38.651Z,9.79
2019-03-28T02:33:37.670Z,9.87
2019-03-28T02:34:37.381Z,9.8
2019-03-28T02:35:37.616Z,9.77
2019-03-28T02:36:37.585Z,9.8
2019-03-28T02:37:37.552Z,9.74
2019-03-28T02:38:37.548Z,9.82
2019-03-28T02:39:37.496Z,9.77
2019-03-28T02:40:37.483Z,9.8
2019-03-28T02:41:37.591Z,9.77
2019-03-28T02:42:37.439Z,9.69
2019-03-28T02:43:37.404Z,9.8
2019-03-28T02:44:37.585Z,9.73
2019-03-28T02:45:37.359Z,9.73
2019-03-28T02:46:37.329Z,9.77
2019-03-28T02:47:38.287Z,9.77
2019-03-28T02:48:37.277Z,9.79
2019-03-28T02:49:37.287Z,9.74
2019-03-28T02:50:37.793Z,9.74
2019-03-28T02:51:37.194Z,9.76
2019-03-28T02:52:37.187Z,9.76
2019-03-28T02:53:37.152Z,9.79
2019-03-28T02:54:37.134Z,9.76
2019-03-28T02:55:37.122Z,9.8
2019-03-28T02:56:37.080Z,9.82
2019-03-28T02:57:46.506Z,9.83
2019-03-28T02:58:37.119Z,9.84
2019-03-28T02:59:37.011Z,9.83
2019-03-28T03:00:36.981Z,9.77
2019-03-28T03:01:36.951Z,9.82
2019-03-28T03:02:37.331Z,9.77
2019-03-28T03:03:36.910Z,9.82
2019-03-28T03:04:36.875Z,9.77
2019-03-28T03:05:36.856Z,9.79
2019-03-28T03:06:36.830Z,9.79
2019-03-28T03:07:36.802Z,9.77
2019-03-28T03:08:36.793Z,9.8
2019-03-28T03:09:36.511Z,9.82
2019-03-28T03:10:36.726Z,9.83
2019-03-28T03:11:38.275Z,9.84
2019-03-28T03:12:36.677Z,9.8
2019-03-28T03:13:36.651Z,9.79
2019-03-28T03:14:37.495Z,9.74
2019-03-28T03:15:36.603Z,9.73
2019-03-28T03:16:36.581Z,9.77
2019-03-28T03:17:36.572Z,9.74
2019-03-28T03:18:36.527Z,9.73
2019-03-28T03:19:36.506Z,9.66
2019-03-28T03:20:36.475Z,9.65
2019-03-28T03:21:36.456Z,9.72
2019-03-28T03:22:36.436Z,9.73
2019-03-28T03:23:36.402Z,9.69
2019-03-28T03:24:36.388Z,9.72
2019-03-28T03:25:36.356Z,9.68
2019-03-28T03:26:36.332Z,9.54
2019-03-28T03:27:36.316Z,9.58
2019-03-28T03:28:36.377Z,9.62
2019-03-28T03:29:36.263Z,9.56
2019-03-28T03:30:36.986Z,9.61
2019-03-28T03:31:36.223Z,9.62
2019-03-28T03:32:36.228Z,9.62
2019-03-28T03:33:37.649Z,9.62
2019-03-28T03:34:37.862Z,9.59
2019-03-28T03:35:36.104Z,9.61
2019-03-28T03:36:36.082Z,9.65
2019-03-28T03:37:36.049Z,9.61
2019-03-28T03:38:36.032Z,9.58
2019-03-28T03:39:36.006Z,9.56
2019-03-28T03:40:35.976Z,9.61
2019-03-28T03:41:35.960Z,9.55
2019-03-28T03:42:35.927Z,9.58
2019-03-28T03:43:35.915Z,9.58
2019-03-28T03:44:35.885Z,9.55
2019-03-28T03:45:35.991Z,9.61
2019-03-28T03:46:35.823Z,9.59
2019-03-28T03:47:35.794Z,9.58
2019-03-28T03:48:35.807Z,9.59
2019-03-28T03:49:35.750Z,9.62
2019-03-28T03:50:35.748Z,9.55
2019-03-28T03:51:35.703Z,9.51
2019-03-28T03:52:35.670Z,9.46
2019-03-28T03:53:35.651Z,9.46
2019-03-28T03:54:35.631Z,9.46
2019-03-28T03:55:35.606Z,9.58
2019-03-28T03:56:35.594Z,9.47
2019-03-28T03:57:35.551Z,9.47
2019-03-28T03:58:35.525Z,9.5
2019-03-28T03:59:35.580Z,9.43
2019-03-28T04:00:35.476Z,9.48
2019-03-28T04:01:35.450Z,9.51
2019-03-28T04:02:36.566Z,9.47
2019-03-28T04:03:35.406Z,9.46
2019-03-28T04:04:35.367Z,9.44
2019-03-28T04:05:35.348Z,9.47
2019-03-28T04:06:35.317Z,9.43
2019-03-28T04:07:35.355Z,9.46
2019-03-28T04:08:35.285Z,9.48
2019-03-28T04:09:35.240Z,9.47
2019-03-28T04:10:34.987Z,9.51
2019-03-28T04:11:35.195Z,9.43
2019-03-28T04:12:35.170Z,9.47
2019-03-28T04:13:35.253Z,9.48
2019-03-28T04:14:35.123Z,9.44
2019-03-28T04:15:34.858Z,9.46
2019-03-28T04:16:35.065Z,9.47
2019-03-28T04:17:34.815Z,9.48
2019-03-28T04:18:35.032Z,9.48
2019-03-28T04:19:35.012Z,9.55
2019-03-28T04:20:34.970Z,9.46
2019-03-28T04:21:34.938Z,9.43
2019-03-28T04:22:34.923Z,9.5
2019-03-28T04:23:34.903Z,9.47
2019-03-28T04:24:34.866Z,9.54
2019-03-28T04:25:34.850Z,9.54
2019-03-28T04:26:34.835Z,9.46
2019-03-28T04:27:34.803Z,9.43
2019-03-28T04:28:38.469Z,9.5
2019-03-28T04:29:35.510Z,9.51
2019-03-28T04:30:34.721Z,9.51
2019-03-28T04:31:34.693Z,9.4
2019-03-28T04:32:34.669Z,9.47
2019-03-28T04:33:35.743Z,9.56
2019-03-28T04:34:34.617Z,9.51
2019-03-28T04:35:34.587Z,9.4
2019-03-28T04:36:34.587Z,9.48
2019-03-28T04:37:35.098Z,9.54
2019-03-28T04:38:34.517Z,9.43
2019-03-28T04:39:34.257Z,9.51
2019-03-28T04:40:34.740Z,9.44
2019-03-28T04:41:34.443Z,9.55
2019-03-28T04:42:34.474Z,9.39
2019-03-28T04:43:34.164Z,9.41
2019-03-28T04:44:34.370Z,9.43
2019-03-28T04:45:34.415Z,9.46
2019-03-28T04:46:34.336Z,9.54
2019-03-28T04:47:34.301Z,9.44
2019-03-28T04:48:34.262Z,9.47
2019-03-28T04:49:34.233Z,9.46
2019-03-28T04:50:34.208Z,9.47
2019-03-28T04:51:34.182Z,9.48
2019-03-28T04:52:36.735Z,9.46
2019-03-28T04:53:34.483Z,9.5
2019-03-28T04:54:34.262Z,9.5
2019-03-28T04:55:34.087Z,9.48
2019-03-28T04:56:34.061Z,9.51
2019-03-28T04:57:34.316Z,9.47
2019-03-28T04:58:46.660Z,9.5
2019-03-28T04:59:33.982Z,9.54
2019-03-28T05:00:33.957Z,9.47
2019-03-28T05:01:33.933Z,9.47
2019-03-28T05:02:33.973Z,9.44
2019-03-28T05:03:33.898Z,9.46
2019-03-28T05:04:33.855Z,9.46
2019-03-28T05:05:34.803Z,9.51
2019-03-28T05:06:33.814Z,9.48
2019-03-28T05:07:33.847Z,9.47
2019-03-28T05:08:33.758Z,9.55
2019-03-28T05:09:33.733Z,9.54
2019-03-28T05:10:35.742Z,9.46
2019-03-28T05:11:33.683Z,9.5
2019-03-28T05:12:33.653Z,9.44
2019-03-28T05:13:33.399Z,9.34
2019-03-28T05:14:33.606Z,9.44
2019-03-28T05:15:34.484Z,9.46
2019-03-28T05:16:33.556Z,9.41
2019-03-28T05:17:33.531Z,9.41
2019-03-28T05:18:33.513Z,9.47
2019-03-28T05:19:33.477Z,9.47
2019-03-28T05:20:33.455Z,9.47
2019-03-28T05:21:33.821Z,9.51
2019-03-28T05:22:33.416Z,9.5
2019-03-28T05:23:33.384Z,9.54
2019-03-28T05:24:33.364Z,9.48
2019-03-28T05:25:33.330Z,9.48
2019-03-28T05:26:33.297Z,9.54
2019-03-28T05:27:33.500Z,9.5
2019-03-28T05:28:33.251Z,9.5
2019-03-28T05:29:33.223Z,9.48
2019-03-28T05:30:33.244Z,9.46
2019-03-28T05:31:33.174Z,9.47
2019-03-28T05:32:33.148Z,9.44
2019-03-28T05:33:33.142Z,9.46
2019-03-28T05:34:33.107Z,9.47
2019-03-28T05:35:33.212Z,9.47
2019-03-28T05:36:34.150Z,9.4
2019-03-28T05:37:33.664Z,9.32
2019-03-28T05:38:33.551Z,9.36
2019-03-28T05:39:32.975Z,9.31
2019-03-28T05:40:32.950Z,9.34
2019-03-28T05:41:32.925Z,9.34
2019-03-28T05:42:32.902Z,9.34
2019-03-28T05:43:32.875Z,9.31
2019-03-28T05:44:32.852Z,9.32
2019-03-28T05:45:32.827Z,9.48
2019-03-28T05:46:32.798Z,9.39
2019-03-28T05:47:32.770Z,9.37
2019-03-28T05:48:32.746Z,9.43
2019-03-28T05:49:32.718Z,9.46
2019-03-28T05:50:32.756Z,9.37
2019-03-28T05:51:32.672Z,9.4
2019-03-28T05:52:32.648Z,9.47
2019-03-28T05:53:32.623Z,9.51
2019-03-28T05:54:32.598Z,9.46
2019-03-28T05:55:32.574Z,9.48
2019-03-28T05:56:32.545Z,9.46
2019-03-28T05:57:32.541Z,9.47
2019-03-28T05:58:32.501Z,9.44
2019-03-28T05:59:32.481Z,9.47
2019-03-28T06:00:32.444Z,9.46
2019-03-28T06:01:32.590Z,9.47
2019-03-28T06:02:32.399Z,9.39
2019-03-28T06:03:32.374Z,9.4
2019-03-28T06:04:32.345Z,9.47
2019-03-28T06:05:32.319Z,9.43
2019-03-28T06:06:32.294Z,9.44
2019-03-28T06:07:32.284Z,9.48
2019-03-28T06:08:32.968Z,9.47
2019-03-28T06:09:32.214Z,9.46
2019-03-28T06:10:32.196Z,9.48
2019-03-28T06:11:33.290Z,9.48
2019-03-28T06:12:32.140Z,9.48
2019-03-28T06:13:32.123Z,9.51
2019-03-28T06:14:33.296Z,9.54
2019-03-28T06:15:32.073Z,9.46
2019-03-28T06:16:32.054Z,9.61
2019-03-28T06:17:32.666Z,9.59
2019-03-28T06:18:31.990Z,9.59
2019-03-28T06:19:31.997Z,9.66
2019-03-28T06:20:32.577Z,9.65
2019-03-28T06:21:31.925Z,9.59
2019-03-28T06:22:31.977Z,9.66
2019-03-28T06:23:31.976Z,9.74
2019-03-28T06:24:31.848Z,9.74
2019-03-28T06:25:31.834Z,9.79
2019-03-28T06:26:32.019Z,9.84
2019-03-28T06:27:31.535Z,9.89
2019-03-28T06:28:31.754Z,9.86
2019-03-28T06:29:31.720Z,9.89
2019-03-28T06:30:31.697Z,9.86
2019-03-28T06:31:31.675Z,9.86
2019-03-28T06:32:44.585Z,9.98
2019-03-28T06:33:31.620Z,9.95
2019-03-28T06:34:31.596Z,9.99
2019-03-28T06:35:31.572Z,9.94
2019-03-28T06:36:32.870Z,9.91
2019-03-28T06:37:32.404Z,9.91
2019-03-28T06:38:31.502Z,9.97
2019-03-28T06:39:31.484Z,9.86
2019-03-28T06:40:31.614Z,9.89
2019-03-28T06:41:31.428Z,9.89
2019-03-28T06:42:31.400Z,9.91
2019-03-28T06:43:31.381Z,9.87
2019-03-28T06:44:31.357Z,9.87
2019-03-28T06:45:31.332Z,9.91
2019-03-28T06:46:31.306Z,9.92
2019-03-28T06:47:31.291Z,9.86
2019-03-28T06:48:31.259Z,9.95
2019-03-28T06:49:31.234Z,9.94
2019-03-28T06:50:31.206Z,9.89
2019-03-28T06:51:31.182Z,9.89
2019-03-28T06:52:31.158Z,9.97
2019-03-28T06:53:31.147Z,9.92
2019-03-28T06:54:31.117Z,9.99
2019-03-28T06:55:31.107Z,9.97
2019-03-28T06:56:31.067Z,9.97
2019-03-28T06:57:31.036Z,9.97
2019-03-28T06:58:31.013Z,9.94
2019-03-28T06:59:41.535Z,9.95
2019-03-28T07:00:30.966Z,9.94
2019-03-28T07:01:30.939Z,9.91
2019-03-28T07:02:31.263Z,9.95
2019-03-28T07:03:31.314Z,9.97
2019-03-28T07:04:30.863Z,10.01
2019-03-28T07:05:30.841Z,9.98
2019-03-28T07:06:30.825Z,10.15
2019-03-28T07:07:30.796Z,10.12
2019-03-28T07:08:31.332Z,10.22
2019-03-28T07:09:31.752Z,10.15
2019-03-28T07:10:30.818Z,10.1
2019-03-28T07:11:32.150Z,10.25
2019-03-28T07:12:31.633Z,10.19
2019-03-28T07:13:31.423Z,10.13
2019-03-28T07:14:31.311Z,10.17
2019-03-28T07:15:31.756Z,10.19
2019-03-28T07:16:31.657Z,10.2
2019-03-28T07:17:31.632Z,10.12
2019-03-28T07:18:31.473Z,10.2
2019-03-28T07:19:31.991Z,10.2
2019-03-28T07:20:32.192Z,10.19
2019-03-28T07:21:31.887Z,10.13
2019-03-28T07:22:32.060Z,10.26
2019-03-28T07:23:31.471Z,10.23
2019-03-28T07:24:30.390Z,10.2
2019-03-28T07:25:30.554Z,10.26
2019-03-28T07:26:31.008Z,10.22
2019-03-28T07:27:30.314Z,10.26
2019-03-28T07:28:30.306Z,10.2
2019-03-28T07:29:30.428Z,10.3
2019-03-28T07:30:30.176Z,10.38
2019-03-28T07:31:31.533Z,10.33
2019-03-28T07:32:30.196Z,10.4
2019-03-28T07:33:30.175Z,10.4
2019-03-28T07:34:30.149Z,10.44
2019-03-28T07:35:30.127Z,10.41
2019-03-28T07:36:30.104Z,10.49
2019-03-28T07:37:32.917Z,10.42
2019-03-28T07:38:30.057Z,10.44
2019-03-28T07:39:30.194Z,10.48
2019-03-28T07:40:33.198Z,10.53
2019-03-28T07:41:29.989Z,10.38
2019-03-28T07:42:29.965Z,10.44
2019-03-28T07:43:30.187Z,10.48
2019-03-28T07:44:31.764Z,10.57
2019-03-28T07:45:30.183Z,10.57
2019-03-28T07:46:29.988Z,10.56
2019-03-28T07:47:29.848Z,10.6
2019-03-28T07:48:29.833Z,10.61
2019-03-28T07:49:29.826Z,10.6
2019-03-28T07:50:33.175Z,10.67
2019-03-28T07:51:30.189Z,10.72
2019-03-28T07:52:29.993Z,10.76
2019-03-28T07:53:29.820Z,10.75
2019-03-28T07:54:29.687Z,10.82
2019-03-28T07:55:29.668Z,10.96
2019-03-28T07:56:29.642Z,10.96
2019-03-28T07:57:29.621Z,10.89
2019-03-28T07:58:29.596Z,11.04
2019-03-28T07:59:29.593Z,11.11
2019-03-28T08:00:29.546Z,11.04
2019-03-28T08:01:30.975Z,10.9
2019-03-28T08:02:29.517Z,10.96
2019-03-28T08:03:30.003Z,10.92
2019-03-28T08:04:29.464Z,10.81
2019-03-28T08:05:29.446Z,10.82
2019-03-28T08:06:29.414Z,10.71
2019-03-28T08:07:29.396Z,10.64
2019-03-28T08:08:46.498Z,10.64
2019-03-28T08:09:41.137Z,10.74
2019-03-28T08:10:29.328Z,10.72
2019-03-28T08:11:29.623Z,10.84
2019-03-28T08:12:30.450Z,10.89
2019-03-28T08:13:29.264Z,10.89
2019-03-28T08:14:29.243Z,10.9
2019-03-28T08:15:29.219Z,10.99
2019-03-28T08:16:31.569Z,11.07
2019-03-28T08:17:29.175Z,11.1
2019-03-28T08:18:29.165Z,11.08
2019-03-28T08:19:29.126Z,11.02
2019-03-28T08:20:29.117Z,10.93
2019-03-28T08:21:29.223Z,10.86
2019-03-28T08:22:31.994Z,10.74
2019-03-28T08:23:29.042Z,10.78
2019-03-28T08:24:30.442Z,10.79
2019-03-28T08:25:31.760Z,10.84
2019-03-28T08:26:32.560Z,10.68
2019-03-28T08:27:28.960Z,10.81
2019-03-28T08:28:28.930Z,10.82
2019-03-28T08:29:28.673Z,10.74
2019-03-28T08:30:28.889Z,10.76
2019-03-28T08:31:28.861Z,10.87
2019-03-28T08:32:28.879Z,10.82
2019-03-28T08:33:29.057Z,10.89
2019-03-28T08:34:31.207Z,10.93
2019-03-28T08:35:28.823Z,10.86
2019-03-28T08:36:28.756Z,10.99
2019-03-28T08:37:28.731Z,10.96
2019-03-28T08:38:28.738Z,10.99
2019-03-28T08:39:28.758Z,10.97
2019-03-28T08:40:28.785Z,11
2019-03-28T08:41:28.641Z,10.94
2019-03-28T08:42:28.626Z,10.89
2019-03-28T08:43:28.610Z,10.78
2019-03-28T08:44:28.579Z,10.72
2019-03-28T08:45:28.552Z,10.71
2019-03-28T08:46:28.540Z,10.71
2019-03-28T08:47:28.515Z,10.72
2019-03-28T08:48:28.494Z,10.71
2019-03-28T08:49:28.464Z,10.69
2019-03-28T08:50:28.441Z,10.74
2019-03-28T08:51:31.924Z,10.71
2019-03-28T08:52:28.402Z,10.78
2019-03-28T08:53:28.385Z,10.72
2019-03-28T08:54:28.353Z,10.84
2019-03-28T08:55:28.345Z,10.79
2019-03-28T08:56:28.314Z,10.84
2019-03-28T08:57:28.293Z,10.9
2019-03-28T08:58:28.283Z,10.97
2019-03-28T08:59:28.250Z,11.08
2019-03-28T09:00:53.798Z,11.1
2019-03-28T09:01:28.209Z,11.15
2019-03-28T09:02:28.195Z,11.27
2019-03-28T09:03:28.165Z,11.37
2019-03-28T09:04:28.149Z,11.45
2019-03-28T09:05:28.121Z,11.57
2019-03-28T09:06:28.096Z,11.6
2019-03-28T09:07:28.072Z,11.59
2019-03-28T09:08:28.048Z,11.62
2019-03-28T09:09:28.062Z,11.6
2019-03-28T09:10:28.016Z,11.68
2019-03-28T09:11:27.750Z,11.73
2019-03-28T09:12:27.971Z,11.84
2019-03-28T09:13:27.961Z,12.04
2019-03-28T09:14:27.940Z,12.09
2019-03-28T09:15:27.919Z,12.29
2019-03-28T09:16:27.893Z,12.39
2019-03-28T09:17:28.677Z,12.47
2019-03-28T09:18:27.878Z,12.64
2019-03-28T09:19:27.842Z,12.65
2019-03-28T09:20:28.029Z,12.61
2019-03-28T09:21:27.792Z,12.6
2019-03-28T09:22:27.782Z,12.58
2019-03-28T09:23:27.760Z,12.55
2019-03-28T09:24:27.745Z,12.62
2019-03-28T09:25:27.737Z,12.62
2019-03-28T09:26:27.719Z,12.64
2019-03-28T09:27:27.704Z,12.76
2019-03-28T09:28:27.594Z,12.73
2019-03-28T09:29:28.620Z,12.8
2019-03-28T09:30:27.408Z,12.62
2019-03-28T09:31:27.612Z,12.61
2019-03-28T09:32:27.591Z,12.58
2019-03-28T09:33:27.578Z,12.67
2019-03-28T09:34:27.562Z,12.68
2019-03-28T09:35:27.541Z,12.73
2019-03-28T09:36:27.306Z,12.72
2019-03-28T09:37:27.498Z,12.73
2019-03-28T09:38:28.000Z,12.78
2019-03-28T09:39:29.639Z,12.78
2019-03-28T09:40:27.449Z,12.73
2019-03-28T09:41:27.430Z,12.86
2019-03-28T09:42:27.410Z,12.94
2019-03-28T09:43:27.389Z,13.01
2019-03-28T09:44:27.378Z,13.22
2019-03-28T09:45:28.468Z,13.28
2019-03-28T09:46:29.457Z,13.41
2019-03-28T09:47:27.339Z,13.38
2019-03-28T09:48:27.309Z,13.52
2019-03-28T09:49:27.303Z,13.49
2019-03-28T09:50:27.290Z,13.56
2019-03-28T09:51:27.264Z,13.56
2019-03-28T09:52:27.243Z,13.49
2019-03-28T09:53:27.242Z,13.31
2019-03-28T09:54:27.268Z,13.28
2019-03-28T09:55:27.176Z,13.31
2019-03-28T09:56:27.167Z,13.2
2019-03-28T09:57:26.926Z,13.18
2019-03-28T09:58:27.120Z,13.19
2019-03-28T09:59:27.109Z,13.04
2019-03-28T10:00:27.095Z,13.01
2019-03-28T10:01:27.163Z,12.97
2019-03-28T10:02:27.052Z,13.04
2019-03-28T10:03:27.032Z,13.03
2019-03-28T10:04:27.312Z,13.08
2019-03-28T10:05:27.006Z,13.01
2019-03-28T10:06:26.992Z,13.19
2019-03-28T10:07:26.999Z,13.37
2019-03-28T10:08:26.954Z,13.39
2019-03-28T10:09:27.018Z,13.47
2019-03-28T10:10:26.920Z,13.47
2019-03-28T10:11:26.905Z,13.56
2019-03-28T10:12:26.977Z,13.63
2019-03-28T10:13:26.861Z,13.68
2019-03-28T10:14:26.846Z,13.74
2019-03-28T10:15:26.829Z,13.87
2019-03-28T10:16:26.811Z,13.95
2019-03-28T10:17:26.895Z,14
2019-03-28T10:18:29.926Z,14.15
2019-03-28T10:19:26.751Z,14.18
2019-03-28T10:20:26.742Z,14.07
2019-03-28T10:21:26.719Z,13.99
2019-03-28T10:22:27.246Z,13.95
2019-03-28T10:23:26.684Z,13.86
2019-03-28T10:24:26.674Z,13.74
2019-03-28T10:25:26.651Z,13.9
2019-03-28T10:26:26.630Z,13.95
2019-03-28T10:27:26.621Z,13.97
2019-03-28T10:28:26.601Z,14.05
2019-03-28T10:29:26.605Z,14.15
2019-03-28T10:30:26.629Z,14.25
2019-03-28T10:31:26.554Z,14.33
2019-03-28T10:32:26.527Z,14.44
2019-03-28T10:33:27.162Z,14.5
2019-03-28T10:34:26.494Z,14.48
2019-03-28T10:35:26.322Z,14.43
2019-03-28T10:36:27.874Z,14.37
2019-03-28T10:37:26.446Z,14.33
2019-03-28T10:38:26.440Z,14.3
2019-03-28T10:39:26.440Z,14.2
2019-03-28T10:40:26.399Z,14.15
2019-03-28T10:41:28.873Z,14.12
2019-03-28T10:42:26.364Z,14.18
2019-03-28T10:43:26.350Z,14.23
2019-03-28T10:44:26.340Z,14.28
2019-03-28T10:45:26.910Z,14.2
2019-03-28T10:46:26.391Z,14.22
2019-03-28T10:47:27.281Z,14.3
2019-03-28T10:48:28.187Z,14.43
2019-03-28T10:49:26.258Z,14.62
2019-03-28T10:50:39.790Z,14.7
2019-03-28T10:51:26.850Z,14.91
2019-03-28T10:52:26.256Z,15.03
2019-03-28T10:53:26.184Z,14.99
2019-03-28T10:54:28.187Z,15.15
2019-03-28T10:55:27.091Z,15.22
2019-03-28T10:56:27.842Z,15.33
2019-03-28T10:57:34.998Z,15.46
2019-03-28T10:58:27.053Z,15.46
2019-03-28T10:59:28.609Z,15.49
2019-03-28T11:00:29.211Z,15.47
2019-03-28T11:01:52.857Z,15.44
2019-03-28T11:02:28.554Z,15.47
2019-03-28T11:03:26.026Z,15.24
2019-03-28T11:04:28.414Z,15.21
2019-03-28T11:05:26.005Z,15.09
2019-03-28T11:06:25.991Z,15.02
2019-03-28T11:07:27.026Z,14.86
2019-03-28T11:08:25.965Z,14.94
2019-03-28T11:09:25.947Z,14.92
2019-03-28T11:10:26.599Z,14.92
2019-03-28T11:11:25.915Z,14.88
2019-03-28T11:12:25.898Z,14.88
2019-03-28T11:13:25.883Z,14.92
2019-03-28T11:14:26.769Z,14.94
2019-03-28T11:15:25.845Z,15.04
2019-03-28T11:16:25.833Z,15.1
2019-03-28T11:17:26.566Z,15.19
2019-03-28T11:18:25.975Z,15.35
2019-03-28T11:19:25.836Z,15.25
2019-03-28T11:20:25.777Z,15.19
2019-03-28T11:21:25.774Z,15.15
2019-03-28T11:22:25.741Z,15.14
2019-03-28T11:23:25.853Z,15.22
2019-03-28T11:24:26.937Z,15.35
2019-03-28T11:25:25.701Z,15.47
2019-03-28T11:26:25.686Z,15.36
2019-03-28T11:27:25.943Z,15.31
2019-03-28T11:28:28.191Z,15.33
2019-03-28T11:29:25.661Z,15.43
2019-03-28T11:30:25.737Z,15.49
2019-03-28T11:31:25.618Z,15.57
2019-03-28T11:32:25.685Z,15.64
2019-03-28T11:33:25.580Z,15.58
2019-03-28T11:34:25.572Z,15.46
2019-03-28T11:35:25.620Z,15.44
2019-03-28T11:36:25.749Z,15.39
2019-03-28T11:37:31.192Z,15.31
2019-03-28T11:38:25.569Z,15.19
2019-03-28T11:39:25.850Z,15.15
2019-03-28T11:40:27.022Z,14.94
2019-03-28T11:41:25.494Z,14.86
2019-03-28T11:42:25.526Z,14.78
2019-03-28T11:43:25.498Z,14.68
2019-03-28T11:44:25.417Z,14.73
2019-03-28T11:45:26.982Z,14.68
2019-03-28T11:46:25.378Z,14.7
2019-03-28T11:47:27.059Z,14.63
2019-03-28T11:48:25.351Z,14.72
2019-03-28T11:49:25.330Z,14.68
2019-03-28T11:50:25.332Z,14.66
2019-03-28T11:51:25.296Z,14.58
2019-03-28T11:52:25.387Z,14.59
2019-03-28T11:53:25.306Z,14.37
2019-03-28T11:54:25.247Z,14.41
2019-03-28T11:55:25.231Z,14.2
2019-03-28T11:56:25.222Z,14.15
2019-03-28T11:57:25.207Z,14.07
2019-03-28T11:58:25.182Z,14.04
2019-03-28T11:59:25.179Z,13.97
2019-03-28T12:00:25.143Z,13.95
2019-03-28T12:01:25.132Z,13.92
2019-03-28T12:02:27.761Z,13.81
2019-03-28T12:03:25.194Z,13.81
2019-03-28T12:04:25.074Z,13.78
2019-03-28T12:05:25.058Z,13.72
2019-03-28T12:06:25.046Z,13.72
2019-03-28T12:07:25.056Z,13.59
2019-03-28T12:08:25.069Z,13.6
2019-03-28T12:09:24.984Z,13.62
2019-03-28T12:10:24.734Z,13.72
2019-03-28T12:11:24.963Z,13.7
2019-03-28T12:12:24.929Z,13.89
2019-03-28T12:13:25.079Z,13.74
2019-03-28T12:14:24.895Z,13.72
2019-03-28T12:15:24.873Z,13.86
2019-03-28T12:16:25.073Z,13.78
2019-03-28T12:17:24.835Z,13.71
2019-03-28T12:18:27.530Z,13.68
2019-03-28T12:19:24.800Z,13.77
2019-03-28T12:20:24.844Z,13.6
2019-03-28T12:21:24.613Z,13.59
2019-03-28T12:22:24.755Z,13.62
2019-03-28T12:23:24.970Z,13.67
2019-03-28T12:24:24.710Z,13.77
2019-03-28T12:25:24.686Z,13.86
2019-03-28T12:26:24.674Z,13.72
2019-03-28T12:27:24.653Z,13.86
2019-03-28T12:28:24.636Z,13.93
2019-03-28T12:29:24.616Z,14
2019-03-28T12:30:24.600Z,13.96
2019-03-28T12:31:24.580Z,14
2019-03-28T12:32:24.575Z,13.99
2019-03-28T12:33:24.649Z,14.05
2019-03-28T12:34:24.520Z,14.03
2019-03-28T12:35:24.503Z,13.93
2019-03-28T12:36:24.497Z,13.93
2019-03-28T12:37:24.467Z,13.97
2019-03-28T12:38:24.446Z,13.97
2019-03-28T12:39:25.567Z,14
2019-03-28T12:40:24.865Z,13.97
2019-03-28T12:41:24.657Z,13.9
2019-03-28T12:42:24.674Z,13.89
2019-03-28T12:43:24.358Z,13.93
2019-03-28T12:44:24.338Z,14
2019-03-28T12:45:24.346Z,14.03
2019-03-28T12:46:25.714Z,14.08
2019-03-28T12:47:24.282Z,14.1
2019-03-28T12:48:24.267Z,14.1
2019-03-28T12:49:24.247Z,14.18
2019-03-28T12:50:24.230Z,14.15
2019-03-28T12:51:26.968Z,14.08
2019-03-28T12:52:24.189Z,14.04
2019-03-28T12:53:24.188Z,14.11
2019-03-28T12:54:24.160Z,14.15
2019-03-28T12:55:25.185Z,14.15
2019-03-28T12:56:26.333Z,14.14
2019-03-28T12:57:24.099Z,14.18
2019-03-28T12:58:24.827Z,14.22
2019-03-28T12:59:24.064Z,14.11
2019-03-28T13:00:24.051Z,14.04
2019-03-28T13:01:24.580Z,14.07
2019-03-28T13:02:36.203Z,13.95
2019-03-28T13:03:23.999Z,13.95
2019-03-28T13:04:23.976Z,13.96
2019-03-28T13:05:23.969Z,13.97
2019-03-28T13:06:24.014Z,13.96